sensor_id;sensor_type;location;lat;lon;timestamp;temperature;humidity
4727;DHT22;2377;51.734;8.950;2023-03-23T00:01:09;11.70;99.90
4727;DHT22;2377;51.734;8.950;2023-03-23T00:03:38;11.70;99.90
4727;DHT22;2377;51.734;8.950;2023-03-23T00:06:08;11.80;99.90
4727;DHT22;2377;51.734;8.950;2023-03-23T00:08:37;11.70;99.90
4727;DHT22;2377;51.734;8.950;2023-03-23T00:11:10;11.70;99.90
4727;DHT22;2377;51.734;8.950;2023-03-23T00:13:40;11.70;99.90
4727;DHT22;2377;51.734;8.950;2023-03-23T00:16:09;11.70;99.90
4727;DHT22;2377;51.734;8.950;2023-03-23T00:18:44;11.70;99.90
4727;DHT22;2377;51.734;8.950;2023-03-23T00:21:12;11.70;99.90
4727;DHT22;2377;51.734;8.950;2023-03-23T00:23:40;11.80;99.90
4727;DHT22;2377;51.734;8.950;2023-03-23T00:26:10;11.70;99.90
4727;DHT22;2377;51.734;8.950;2023-03-23T00:28:39;11.70;99.90
4727;DHT22;2377;51.734;8.950;2023-03-23T00:31:08;11.70;99.90
4727;DHT22;2377;51.734;8.950;2023-03-23T00:33:37;11.70;99.90
4727;DHT22;2377;51.734;8.950;2023-03-23T00:36:07;11.80;99.90
4727;DHT22;2377;51.734;8.950;2023-03-23T00:38:37;11.80;99.90
4727;DHT22;2377;51.734;8.950;2023-03-23T00:41:06;11.80;99.90
4727;DHT22;2377;51.734;8.950;2023-03-23T00:43:33;11.80;99.90
4727;DHT22;2377;51.734;8.950;2023-03-23T00:46:02;11.70;99.90
4727;DHT22;2377;51.734;8.950;2023-03-23T00:48:35;11.70;99.90
4727;DHT22;2377;51.734;8.950;2023-03-23T00:51:06;11.80;99.90
4727;DHT22;2377;51.734;8.950;2023-03-23T00:53:37;11.80;99.90
4727;DHT22;2377;51.734;8.950;2023-03-23T00:56:07;11.80;99.90
4727;DHT22;2377;51.734;8.950;2023-03-23T00:58:34;11.80;99.90
4727;DHT22;2377;51.734;8.950;2023-03-23T01:01:03;11.70;99.90
4727;DHT22;2377;51.734;8.950;2023-03-23T01:03:30;11.60;99.90
4727;DHT22;2377;51.734;8.950;2023-03-23T01:06:04;11.70;99.90
4727;DHT22;2377;51.734;8.950;2023-03-23T01:08:33;11.70;99.90
4727;DHT22;2377;51.734;8.950;2023-03-23T01:11:07;11.70;99.90
4727;DHT22;2377;51.734;8.950;2023-03-23T01:13:34;11.60;99.90
4727;DHT22;2377;51.734;8.950;2023-03-23T01:16:02;11.60;99.90
4727;DHT22;2377;51.734;8.950;2023-03-23T01:18:29;11.60;99.90
4727;DHT22;2377;51.734;8.950;2023-03-23T01:20:56;11.60;99.90
4727;DHT22;2377;51.734;8.950;2023-03-23T01:23:23;11.60;99.90
4727;DHT22;2377;51.734;8.950;2023-03-23T01:25:51;11.60;99.90
4727;DHT22;2377;51.734;8.950;2023-03-23T01:28:21;11.60;99.90
4727;DHT22;2377;51.734;8.950;2023-03-23T01:30:48;11.60;99.90
4727;DHT22;2377;51.734;8.950;2023-03-23T01:33:15;11.60;99.90
4727;DHT22;2377;51.734;8.950;2023-03-23T01:35:42;11.60;99.90
4727;DHT22;2377;51.734;8.950;2023-03-23T01:38:09;11.60;99.90
4727;DHT22;2377;51.734;8.950;2023-03-23T01:40:36;11.50;99.90
4727;DHT22;2377;51.734;8.950;2023-03-23T01:43:09;11.50;99.90
4727;DHT22;2377;51.734;8.950;2023-03-23T01:45:41;11.50;99.90
4727;DHT22;2377;51.734;8.950;2023-03-23T01:48:12;11.50;99.90
4727;DHT22;2377;51.734;8.950;2023-03-23T01:50:52;11.50;99.90
4727;DHT22;2377;51.734;8.950;2023-03-23T01:53:26;11.50;99.90
4727;DHT22;2377;51.734;8.950;2023-03-23T01:55:57;11.50;99.90
4727;DHT22;2377;51.734;8.950;2023-03-23T01:58:31;11.50;99.90
4727;DHT22;2377;51.734;8.950;2023-03-23T02:01:04;11.50;99.90
4727;DHT22;2377;51.734;8.950;2023-03-23T02:03:35;11.50;99.90
4727;DHT22;2377;51.734;8.950;2023-03-23T02:06:04;11.50;99.90
4727;DHT22;2377;51.734;8.950;2023-03-23T02:08:33;11.50;99.90
4727;DHT22;2377;51.734;8.950;2023-03-23T02:11:01;11.50;99.90
4727;DHT22;2377;51.734;8.950;2023-03-23T02:13:38;11.50;99.90
4727;DHT22;2377;51.734;8.950;2023-03-23T02:16:14;11.50;99.90
4727;DHT22;2377;51.734;8.950;2023-03-23T02:18:57;11.50;99.90
4727;DHT22;2377;51.734;8.950;2023-03-23T02:21:48;11.50;99.90
4727;DHT22;2377;51.734;8.950;2023-03-23T02:24:53;11.50;99.90
4727;DHT22;2377;51.734;8.950;2023-03-23T02:27:44;11.50;99.90
4727;DHT22;2377;51.734;8.950;2023-03-23T02:30:43;11.60;99.90
4727;DHT22;2377;51.734;8.950;2023-03-23T02:33:36;11.50;99.90
4727;DHT22;2377;51.734;8.950;2023-03-23T02:36:13;11.50;99.90
4727;DHT22;2377;51.734;8.950;2023-03-23T02:38:54;11.60;99.90
4727;DHT22;2377;51.734;8.950;2023-03-23T02:41:28;11.50;99.90
4727;DHT22;2377;51.734;8.950;2023-03-23T02:43:58;11.50;99.90
4727;DHT22;2377;51.734;8.950;2023-03-23T02:46:29;11.50;99.90
4727;DHT22;2377;51.734;8.950;2023-03-23T02:48:59;11.50;99.90
4727;DHT22;2377;51.734;8.950;2023-03-23T02:51:30;11.50;99.90
4727;DHT22;2377;51.734;8.950;2023-03-23T02:53:59;11.40;99.90
4727;DHT22;2377;51.734;8.950;2023-03-23T02:56:29;11.40;99.90
4727;DHT22;2377;51.734;8.950;2023-03-23T02:58:58;11.40;99.90
4727;DHT22;2377;51.734;8.950;2023-03-23T03:01:53;11.40;99.90
4727;DHT22;2377;51.734;8.950;2023-03-23T03:04:26;11.30;99.90
4727;DHT22;2377;51.734;8.950;2023-03-23T03:07:07;11.30;1.00
4727;DHT22;2377;51.734;8.950;2023-03-23T03:09:49;11.30;1.00
4727;DHT22;2377;51.734;8.950;2023-03-23T03:12:26;11.30;1.00
4727;DHT22;2377;51.734;8.950;2023-03-23T03:15:09;11.20;1.00
4727;DHT22;2377;51.734;8.950;2023-03-23T03:17:48;11.30;1.00
4727;DHT22;2377;51.734;8.950;2023-03-23T03:20:27;11.30;1.00
4727;DHT22;2377;51.734;8.950;2023-03-23T03:22:56;11.10;1.00
4727;DHT22;2377;51.734;8.950;2023-03-23T03:25:25;11.10;1.00
4727;DHT22;2377;51.734;8.950;2023-03-23T03:27:54;11.10;1.00
4727;DHT22;2377;51.734;8.950;2023-03-23T03:30:26;11.10;1.00
4727;DHT22;2377;51.734;8.950;2023-03-23T03:32:57;11.10;1.00
4727;DHT22;2377;51.734;8.950;2023-03-23T03:35:27;11.10;1.00
4727;DHT22;2377;51.734;8.950;2023-03-23T03:37:55;11.10;1.00
4727;DHT22;2377;51.734;8.950;2023-03-23T03:40:23;11.10;1.00
4727;DHT22;2377;51.734;8.950;2023-03-23T03:42:50;11.10;1.00
4727;DHT22;2377;51.734;8.950;2023-03-23T03:45:19;11.00;1.00
4727;DHT22;2377;51.734;8.950;2023-03-23T03:47:47;11.00;1.00
4727;DHT22;2377;51.734;8.950;2023-03-23T03:50:14;11.10;1.00
4727;DHT22;2377;51.734;8.950;2023-03-23T03:52:43;11.10;1.00
4727;DHT22;2377;51.734;8.950;2023-03-23T03:55:10;11.10;1.00
4727;DHT22;2377;51.734;8.950;2023-03-23T03:57:38;11.00;1.00
4727;DHT22;2377;51.734;8.950;2023-03-23T04:00:08;11.00;1.00
4727;DHT22;2377;51.734;8.950;2023-03-23T04:02:43;11.00;1.00
4727;DHT22;2377;51.734;8.950;2023-03-23T04:05:16;11.00;1.00
4727;DHT22;2377;51.734;8.950;2023-03-23T04:07:45;11.00;1.00
4727;DHT22;2377;51.734;8.950;2023-03-23T04:10:18;11.00;1.00
4727;DHT22;2377;51.734;8.950;2023-03-23T04:12:47;10.90;1.00
4727;DHT22;2377;51.734;8.950;2023-03-23T04:15:14;11.00;1.00
4727;DHT22;2377;51.734;8.950;2023-03-23T04:17:42;11.00;1.00
4727;DHT22;2377;51.734;8.950;2023-03-23T04:20:10;11.00;1.00
4727;DHT22;2377;51.734;8.950;2023-03-23T04:22:43;10.90;1.00
4727;DHT22;2377;51.734;8.950;2023-03-23T04:25:16;10.80;1.00
4727;DHT22;2377;51.734;8.950;2023-03-23T04:27:46;10.90;1.00
4727;DHT22;2377;51.734;8.950;2023-03-23T04:30:19;10.90;1.00
4727;DHT22;2377;51.734;8.950;2023-03-23T04:32:48;10.90;1.00
4727;DHT22;2377;51.734;8.950;2023-03-23T04:35:18;10.90;1.00
4727;DHT22;2377;51.734;8.950;2023-03-23T04:37:48;10.90;1.00
4727;DHT22;2377;51.734;8.950;2023-03-23T04:40:18;10.90;1.00
4727;DHT22;2377;51.734;8.950;2023-03-23T04:42:46;10.80;1.00
4727;DHT22;2377;51.734;8.950;2023-03-23T04:45:18;10.80;1.00
4727;DHT22;2377;51.734;8.950;2023-03-23T04:47:48;10.80;1.00
4727;DHT22;2377;51.734;8.950;2023-03-23T04:50:20;10.80;1.00
4727;DHT22;2377;51.734;8.950;2023-03-23T04:52:51;10.80;1.00
4727;DHT22;2377;51.734;8.950;2023-03-23T04:55:20;10.80;1.00
4727;DHT22;2377;51.734;8.950;2023-03-23T04:57:47;10.80;1.00
4727;DHT22;2377;51.734;8.950;2023-03-23T05:00:15;10.80;1.00
4727;DHT22;2377;51.734;8.950;2023-03-23T05:02:44;10.90;1.00
4727;DHT22;2377;51.734;8.950;2023-03-23T05:05:17;10.80;1.00
4727;DHT22;2377;51.734;8.950;2023-03-23T05:07:46;10.80;1.00
4727;DHT22;2377;51.734;8.950;2023-03-23T05:10:15;10.80;1.00
4727;DHT22;2377;51.734;8.950;2023-03-23T05:12:43;10.80;1.00
4727;DHT22;2377;51.734;8.950;2023-03-23T05:15:12;10.80;1.00
4727;DHT22;2377;51.734;8.950;2023-03-23T05:17:41;10.80;1.00
4727;DHT22;2377;51.734;8.950;2023-03-23T05:20:11;10.80;1.00
4727;DHT22;2377;51.734;8.950;2023-03-23T05:22:40;10.80;1.00
4727;DHT22;2377;51.734;8.950;2023-03-23T05:25:09;10.80;1.00
4727;DHT22;2377;51.734;8.950;2023-03-23T05:27:38;10.80;1.00
4727;DHT22;2377;51.734;8.950;2023-03-23T05:30:08;10.80;1.00
4727;DHT22;2377;51.734;8.950;2023-03-23T05:32:37;10.80;1.00
4727;DHT22;2377;51.734;8.950;2023-03-23T05:35:04;10.80;1.00
4727;DHT22;2377;51.734;8.950;2023-03-23T05:37:32;10.80;1.00
4727;DHT22;2377;51.734;8.950;2023-03-23T05:39:59;10.80;1.00
4727;DHT22;2377;51.734;8.950;2023-03-23T05:42:31;10.80;1.00
4727;DHT22;2377;51.734;8.950;2023-03-23T05:45:01;10.80;1.00
4727;DHT22;2377;51.734;8.950;2023-03-23T05:47:28;10.80;1.00
4727;DHT22;2377;51.734;8.950;2023-03-23T05:49:55;10.80;1.00
4727;DHT22;2377;51.734;8.950;2023-03-23T05:52:23;10.80;1.00
4727;DHT22;2377;51.734;8.950;2023-03-23T05:54:50;10.80;1.00
4727;DHT22;2377;51.734;8.950;2023-03-23T05:57:18;10.80;1.00
4727;DHT22;2377;51.734;8.950;2023-03-23T05:59:47;10.90;1.00
4727;DHT22;2377;51.734;8.950;2023-03-23T06:02:16;10.80;1.00
4727;DHT22;2377;51.734;8.950;2023-03-23T06:04:43;10.90;1.00
4727;DHT22;2377;51.734;8.950;2023-03-23T06:07:10;10.90;1.00
4727;DHT22;2377;51.734;8.950;2023-03-23T06:09:39;10.90;1.00
4727;DHT22;2377;51.734;8.950;2023-03-23T06:12:07;10.90;1.00
4727;DHT22;2377;51.734;8.950;2023-03-23T06:14:35;11.00;1.00
4727;DHT22;2377;51.734;8.950;2023-03-23T06:17:03;11.00;1.00
4727;DHT22;2377;51.734;8.950;2023-03-23T06:19:31;11.00;1.00
4727;DHT22;2377;51.734;8.950;2023-03-23T06:21:59;11.00;1.00
4727;DHT22;2377;51.734;8.950;2023-03-23T06:24:27;11.00;1.00
4727;DHT22;2377;51.734;8.950;2023-03-23T06:26:55;11.00;1.00
4727;DHT22;2377;51.734;8.950;2023-03-23T06:29:22;11.00;1.00
4727;DHT22;2377;51.734;8.950;2023-03-23T06:31:51;11.00;1.00
4727;DHT22;2377;51.734;8.950;2023-03-23T06:34:20;11.00;1.00
4727;DHT22;2377;51.734;8.950;2023-03-23T06:36:50;11.00;1.00
4727;DHT22;2377;51.734;8.950;2023-03-23T06:39:17;11.10;1.00
4727;DHT22;2377;51.734;8.950;2023-03-23T06:41:44;11.10;1.00
4727;DHT22;2377;51.734;8.950;2023-03-23T06:44:11;11.10;1.00
4727;DHT22;2377;51.734;8.950;2023-03-23T06:46:39;11.20;99.90
4727;DHT22;2377;51.734;8.950;2023-03-23T06:49:07;11.20;99.90
4727;DHT22;2377;51.734;8.950;2023-03-23T06:51:35;11.30;99.90
4727;DHT22;2377;51.734;8.950;2023-03-23T06:54:04;11.30;99.90
4727;DHT22;2377;51.734;8.950;2023-03-23T06:56:31;11.30;99.90
4727;DHT22;2377;51.734;8.950;2023-03-23T06:58:59;11.30;99.90
4727;DHT22;2377;51.734;8.950;2023-03-23T07:01:26;11.20;99.90
4727;DHT22;2377;51.734;8.950;2023-03-23T07:03:54;11.20;99.90
4727;DHT22;2377;51.734;8.950;2023-03-23T07:06:22;11.10;99.90
4727;DHT22;2377;51.734;8.950;2023-03-23T07:08:51;11.10;99.90
4727;DHT22;2377;51.734;8.950;2023-03-23T07:11:20;11.20;99.90
4727;DHT22;2377;51.734;8.950;2023-03-23T07:13:47;11.30;99.90
4727;DHT22;2377;51.734;8.950;2023-03-23T07:16:15;11.30;99.90
4727;DHT22;2377;51.734;8.950;2023-03-23T07:18:43;11.40;99.90
4727;DHT22;2377;51.734;8.950;2023-03-23T07:21:10;11.40;99.90
4727;DHT22;2377;51.734;8.950;2023-03-23T07:23:37;11.50;99.90
4727;DHT22;2377;51.734;8.950;2023-03-23T07:26:04;11.50;99.90
4727;DHT22;2377;51.734;8.950;2023-03-23T07:28:33;11.60;99.90
4727;DHT22;2377;51.734;8.950;2023-03-23T07:31:02;11.60;99.90
4727;DHT22;2377;51.734;8.950;2023-03-23T07:33:29;11.60;99.90
4727;DHT22;2377;51.734;8.950;2023-03-23T07:35:58;11.70;99.90
4727;DHT22;2377;51.734;8.950;2023-03-23T07:38:26;11.70;99.90
4727;DHT22;2377;51.734;8.950;2023-03-23T07:40:54;11.70;99.90
4727;DHT22;2377;51.734;8.950;2023-03-23T07:43:22;11.70;99.90
4727;DHT22;2377;51.734;8.950;2023-03-23T07:45:50;11.80;99.90
4727;DHT22;2377;51.734;8.950;2023-03-23T07:48:18;11.80;99.90
4727;DHT22;2377;51.734;8.950;2023-03-23T07:50:45;11.80;99.90
4727;DHT22;2377;51.734;8.950;2023-03-23T07:53:13;11.90;99.90
4727;DHT22;2377;51.734;8.950;2023-03-23T07:55:40;11.90;99.90
4727;DHT22;2377;51.734;8.950;2023-03-23T07:58:07;11.90;99.90
4727;DHT22;2377;51.734;8.950;2023-03-23T08:00:34;12.00;99.90
4727;DHT22;2377;51.734;8.950;2023-03-23T08:03:05;12.10;99.90
4727;DHT22;2377;51.734;8.950;2023-03-23T08:05:32;12.10;99.90
4727;DHT22;2377;51.734;8.950;2023-03-23T08:07:59;12.10;99.90
4727;DHT22;2377;51.734;8.950;2023-03-23T08:10:27;12.10;99.90
4727;DHT22;2377;51.734;8.950;2023-03-23T08:12:56;12.10;99.90
4727;DHT22;2377;51.734;8.950;2023-03-23T08:15:24;12.10;99.90
4727;DHT22;2377;51.734;8.950;2023-03-23T08:17:52;12.10;99.90
4727;DHT22;2377;51.734;8.950;2023-03-23T08:20:21;12.10;99.90
4727;DHT22;2377;51.734;8.950;2023-03-23T08:22:52;12.10;99.90
4727;DHT22;2377;51.734;8.950;2023-03-23T08:25:24;12.10;99.90
4727;DHT22;2377;51.734;8.950;2023-03-23T08:27:52;12.20;99.90
4727;DHT22;2377;51.734;8.950;2023-03-23T08:30:20;12.30;99.90
4727;DHT22;2377;51.734;8.950;2023-03-23T08:32:49;12.30;99.90
4727;DHT22;2377;51.734;8.950;2023-03-23T08:35:17;12.40;99.90
4727;DHT22;2377;51.734;8.950;2023-03-23T08:37:46;12.40;99.90
4727;DHT22;2377;51.734;8.950;2023-03-23T08:40:17;12.40;99.90
4727;DHT22;2377;51.734;8.950;2023-03-23T08:42:47;12.50;99.90
4727;DHT22;2377;51.734;8.950;2023-03-23T08:45:17;12.50;99.90
4727;DHT22;2377;51.734;8.950;2023-03-23T08:47:46;12.50;99.90
4727;DHT22;2377;51.734;8.950;2023-03-23T08:50:17;12.50;99.90
4727;DHT22;2377;51.734;8.950;2023-03-23T08:52:46;12.50;99.90
4727;DHT22;2377;51.734;8.950;2023-03-23T08:55:14;12.50;99.90
4727;DHT22;2377;51.734;8.950;2023-03-23T08:57:43;12.60;99.90
4727;DHT22;2377;51.734;8.950;2023-03-23T09:00:13;12.60;99.90
4727;DHT22;2377;51.734;8.950;2023-03-23T09:02:43;12.60;99.90
4727;DHT22;2377;51.734;8.950;2023-03-23T09:05:13;12.60;99.90
4727;DHT22;2377;51.734;8.950;2023-03-23T09:07:43;12.70;99.90
4727;DHT22;2377;51.734;8.950;2023-03-23T09:10:14;12.70;99.90
4727;DHT22;2377;51.734;8.950;2023-03-23T09:12:43;12.70;99.90
4727;DHT22;2377;51.734;8.950;2023-03-23T09:15:14;12.70;99.90
4727;DHT22;2377;51.734;8.950;2023-03-23T09:17:44;12.70;99.90
4727;DHT22;2377;51.734;8.950;2023-03-23T09:20:15;12.80;99.90
4727;DHT22;2377;51.734;8.950;2023-03-23T09:22:47;12.80;99.90
4727;DHT22;2377;51.734;8.950;2023-03-23T09:25:17;12.80;99.90
4727;DHT22;2377;51.734;8.950;2023-03-23T09:27:49;13.00;99.90
4727;DHT22;2377;51.734;8.950;2023-03-23T09:30:19;13.00;99.90
4727;DHT22;2377;51.734;8.950;2023-03-23T09:32:47;12.90;99.90
4727;DHT22;2377;51.734;8.950;2023-03-23T09:35:15;13.00;99.90
4727;DHT22;2377;51.734;8.950;2023-03-23T09:37:43;13.00;99.90
4727;DHT22;2377;51.734;8.950;2023-03-23T09:40:14;13.00;99.90
4727;DHT22;2377;51.734;8.950;2023-03-23T09:42:55;13.10;99.90
4727;DHT22;2377;51.734;8.950;2023-03-23T09:45:37;13.10;99.90
4727;DHT22;2377;51.734;8.950;2023-03-23T09:48:26;13.10;99.90
4727;DHT22;2377;51.734;8.950;2023-03-23T09:51:02;13.10;99.90
4727;DHT22;2377;51.734;8.950;2023-03-23T09:53:53;13.00;99.90
4727;DHT22;2377;51.734;8.950;2023-03-23T09:56:27;13.10;99.90
4727;DHT22;2377;51.734;8.950;2023-03-23T09:59:00;13.10;99.90
4727;DHT22;2377;51.734;8.950;2023-03-23T10:01:33;13.00;99.90
4727;DHT22;2377;51.734;8.950;2023-03-23T10:04:07;13.00;99.90
4727;DHT22;2377;51.734;8.950;2023-03-23T10:06:39;12.90;99.90
4727;DHT22;2377;51.734;8.950;2023-03-23T10:09:08;13.00;99.90
4727;DHT22;2377;51.734;8.950;2023-03-23T10:11:49;13.00;99.90
4727;DHT22;2377;51.734;8.950;2023-03-23T10:14:44;13.00;99.90
4727;DHT22;2377;51.734;8.950;2023-03-23T10:17:27;12.90;99.90
4727;DHT22;2377;51.734;8.950;2023-03-23T10:20:05;13.00;99.90
4727;DHT22;2377;51.734;8.950;2023-03-23T10:22:50;13.00;99.90
4727;DHT22;2377;51.734;8.950;2023-03-23T10:25:25;13.10;99.90
4727;DHT22;2377;51.734;8.950;2023-03-23T10:28:01;13.10;99.90
4727;DHT22;2377;51.734;8.950;2023-03-23T10:30:35;13.10;99.90
4727;DHT22;2377;51.734;8.950;2023-03-23T10:33:11;13.00;99.90
4727;DHT22;2377;51.734;8.950;2023-03-23T10:35:48;13.10;99.90
4727;DHT22;2377;51.734;8.950;2023-03-23T10:38:31;13.10;99.90
4727;DHT22;2377;51.734;8.950;2023-03-23T10:41:06;13.10;99.90
4727;DHT22;2377;51.734;8.950;2023-03-23T10:43:39;13.10;99.90
4727;DHT22;2377;51.734;8.950;2023-03-23T10:46:16;13.30;99.90
4727;DHT22;2377;51.734;8.950;2023-03-23T10:48:51;13.40;99.90
4727;DHT22;2377;51.734;8.950;2023-03-23T10:51:25;13.50;99.90
4727;DHT22;2377;51.734;8.950;2023-03-23T10:53:58;13.50;99.90
4727;DHT22;2377;51.734;8.950;2023-03-23T10:56:29;13.60;99.90
4727;DHT22;2377;51.734;8.950;2023-03-23T10:59:13;13.60;99.90
4727;DHT22;2377;51.734;8.950;2023-03-23T11:01:48;13.60;99.90
4727;DHT22;2377;51.734;8.950;2023-03-23T11:04:19;13.70;99.90
4727;DHT22;2377;51.734;8.950;2023-03-23T11:06:50;13.60;99.90
4727;DHT22;2377;51.734;8.950;2023-03-23T11:09:20;13.70;99.90
4727;DHT22;2377;51.734;8.950;2023-03-23T11:11:59;13.80;99.90
4727;DHT22;2377;51.734;8.950;2023-03-23T11:14:30;13.70;99.90
4727;DHT22;2377;51.734;8.950;2023-03-23T11:17:01;13.60;99.90
4727;DHT22;2377;51.734;8.950;2023-03-23T11:19:31;13.70;99.90
4727;DHT22;2377;51.734;8.950;2023-03-23T11:22:07;13.70;99.90
4727;DHT22;2377;51.734;8.950;2023-03-23T11:24:40;13.80;99.90
4727;DHT22;2377;51.734;8.950;2023-03-23T11:27:09;13.90;99.90
4727;DHT22;2377;51.734;8.950;2023-03-23T11:29:50;13.90;99.90
4727;DHT22;2377;51.734;8.950;2023-03-23T11:32:23;13.90;99.90
4727;DHT22;2377;51.734;8.950;2023-03-23T11:34:57;13.80;99.90
4727;DHT22;2377;51.734;8.950;2023-03-23T11:37:32;13.60;99.90
4727;DHT22;2377;51.734;8.950;2023-03-23T11:40:03;13.60;99.90
4727;DHT22;2377;51.734;8.950;2023-03-23T11:42:45;13.60;99.90
4727;DHT22;2377;51.734;8.950;2023-03-23T11:45:18;13.70;99.90
4727;DHT22;2377;51.734;8.950;2023-03-23T11:47:57;13.80;99.90
4727;DHT22;2377;51.734;8.950;2023-03-23T11:50:32;13.70;99.90
4727;DHT22;2377;51.734;8.950;2023-03-23T11:53:08;13.70;99.90
4727;DHT22;2377;51.734;8.950;2023-03-23T11:55:53;13.60;99.90
4727;DHT22;2377;51.734;8.950;2023-03-23T11:58:26;13.60;99.90
4727;DHT22;2377;51.734;8.950;2023-03-23T12:01:05;13.50;99.90
4727;DHT22;2377;51.734;8.950;2023-03-23T12:04:03;13.50;99.90
4727;DHT22;2377;51.734;8.950;2023-03-23T12:06:49;13.30;99.90
4727;DHT22;2377;51.734;8.950;2023-03-23T12:09:32;13.30;99.90
4727;DHT22;2377;51.734;8.950;2023-03-23T12:12:13;13.30;99.90
4727;DHT22;2377;51.734;8.950;2023-03-23T12:14:51;13.30;99.90
4727;DHT22;2377;51.734;8.950;2023-03-23T12:17:36;13.30;99.90
4727;DHT22;2377;51.734;8.950;2023-03-23T12:20:21;13.10;99.90
4727;DHT22;2377;51.734;8.950;2023-03-23T12:23:13;13.00;99.90
4727;DHT22;2377;51.734;8.950;2023-03-23T12:25:59;13.00;99.90
4727;DHT22;2377;51.734;8.950;2023-03-23T12:28:49;12.80;99.90
4727;DHT22;2377;51.734;8.950;2023-03-23T12:31:31;12.70;99.90
4727;DHT22;2377;51.734;8.950;2023-03-23T12:34:13;12.60;99.90
4727;DHT22;2377;51.734;8.950;2023-03-23T12:36:57;12.60;99.90
4727;DHT22;2377;51.734;8.950;2023-03-23T12:40:07;12.40;99.90
4727;DHT22;2377;51.734;8.950;2023-03-23T12:42:54;12.30;99.90
4727;DHT22;2377;51.734;8.950;2023-03-23T12:45:53;12.10;99.90
4727;DHT22;2377;51.734;8.950;2023-03-23T12:48:31;12.20;99.90
4727;DHT22;2377;51.734;8.950;2023-03-23T12:51:17;12.10;99.90
4727;DHT22;2377;51.734;8.950;2023-03-23T12:53:55;12.00;99.90
4727;DHT22;2377;51.734;8.950;2023-03-23T12:56:29;12.00;99.90
4727;DHT22;2377;51.734;8.950;2023-03-23T12:59:06;12.00;99.90
4727;DHT22;2377;51.734;8.950;2023-03-23T13:01:41;12.00;99.90
4727;DHT22;2377;51.734;8.950;2023-03-23T13:04:13;12.10;99.90
4727;DHT22;2377;51.734;8.950;2023-03-23T13:06:46;12.10;99.90
4727;DHT22;2377;51.734;8.950;2023-03-23T13:09:19;12.10;99.90
4727;DHT22;2377;51.734;8.950;2023-03-23T13:11:53;12.10;99.90
4727;DHT22;2377;51.734;8.950;2023-03-23T13:14:31;12.00;99.90
4727;DHT22;2377;51.734;8.950;2023-03-23T13:17:15;12.00;99.90
4727;DHT22;2377;51.734;8.950;2023-03-23T13:20:04;11.90;99.90
4727;DHT22;2377;51.734;8.950;2023-03-23T13:22:49;11.80;99.90
4727;DHT22;2377;51.734;8.950;2023-03-23T13:25:29;11.80;99.90
4727;DHT22;2377;51.734;8.950;2023-03-23T13:28:12;11.80;99.90
4727;DHT22;2377;51.734;8.950;2023-03-23T13:30:53;11.80;1.00
4727;DHT22;2377;51.734;8.950;2023-03-23T13:33:28;11.80;99.90
4727;DHT22;2377;51.734;8.950;2023-03-23T13:35:56;11.80;99.90
4727;DHT22;2377;51.734;8.950;2023-03-23T13:38:34;11.80;1.00
4727;DHT22;2377;51.734;8.950;2023-03-23T13:41:07;11.80;1.00
4727;DHT22;2377;51.734;8.950;2023-03-23T13:43:38;11.70;1.00
4727;DHT22;2377;51.734;8.950;2023-03-23T13:46:09;11.70;1.00
4727;DHT22;2377;51.734;8.950;2023-03-23T13:48:42;11.60;1.00
4727;DHT22;2377;51.734;8.950;2023-03-23T13:51:27;11.60;1.00
4727;DHT22;2377;51.734;8.950;2023-03-23T13:54:19;11.60;1.00
4727;DHT22;2377;51.734;8.950;2023-03-23T13:56:57;11.70;1.00
4727;DHT22;2377;51.734;8.950;2023-03-23T13:59:34;11.70;1.00
4727;DHT22;2377;51.734;8.950;2023-03-23T14:02:33;11.70;1.00
4727;DHT22;2377;51.734;8.950;2023-03-23T14:05:38;11.70;1.00
4727;DHT22;2377;51.734;8.950;2023-03-23T14:08:13;11.70;1.00
4727;DHT22;2377;51.734;8.950;2023-03-23T14:10:52;11.70;1.00
4727;DHT22;2377;51.734;8.950;2023-03-23T14:13:25;11.70;1.00
4727;DHT22;2377;51.734;8.950;2023-03-23T14:15:59;11.80;1.00
4727;DHT22;2377;51.734;8.950;2023-03-23T14:18:35;11.80;1.00
4727;DHT22;2377;51.734;8.950;2023-03-23T14:21:06;11.80;1.00
4727;DHT22;2377;51.734;8.950;2023-03-23T14:23:41;11.90;1.00
4727;DHT22;2377;51.734;8.950;2023-03-23T14:26:15;11.80;1.00
4727;DHT22;2377;51.734;8.950;2023-03-23T14:28:45;11.80;1.00
4727;DHT22;2377;51.734;8.950;2023-03-23T14:31:19;11.90;1.00
4727;DHT22;2377;51.734;8.950;2023-03-23T14:33:49;11.90;1.00
4727;DHT22;2377;51.734;8.950;2023-03-23T14:36:20;12.00;1.00
4727;DHT22;2377;51.734;8.950;2023-03-23T14:38:57;12.00;1.00
4727;DHT22;2377;51.734;8.950;2023-03-23T14:41:30;12.00;1.00
4727;DHT22;2377;51.734;8.950;2023-03-23T14:44:00;12.00;1.00
4727;DHT22;2377;51.734;8.950;2023-03-23T14:46:31;11.90;1.00
4727;DHT22;2377;51.734;8.950;2023-03-23T14:49:00;11.80;1.00
4727;DHT22;2377;51.734;8.950;2023-03-23T14:51:29;11.80;1.00
4727;DHT22;2377;51.734;8.950;2023-03-23T14:53:59;11.80;1.00
4727;DHT22;2377;51.734;8.950;2023-03-23T14:56:36;11.80;1.00
4727;DHT22;2377;51.734;8.950;2023-03-23T14:59:05;11.90;1.00
4727;DHT22;2377;51.734;8.950;2023-03-23T15:01:36;11.80;1.00
4727;DHT22;2377;51.734;8.950;2023-03-23T15:04:09;11.80;1.00
4727;DHT22;2377;51.734;8.950;2023-03-23T15:06:41;11.90;1.00
4727;DHT22;2377;51.734;8.950;2023-03-23T15:09:16;12.00;1.00
4727;DHT22;2377;51.734;8.950;2023-03-23T15:11:55;11.90;1.00
4727;DHT22;2377;51.734;8.950;2023-03-23T15:14:28;11.90;1.00
4727;DHT22;2377;51.734;8.950;2023-03-23T15:17:00;12.00;1.00
4727;DHT22;2377;51.734;8.950;2023-03-23T15:19:32;12.00;1.00
4727;DHT22;2377;51.734;8.950;2023-03-23T15:22:07;11.90;1.00
4727;DHT22;2377;51.734;8.950;2023-03-23T15:24:42;11.90;1.00
4727;DHT22;2377;51.734;8.950;2023-03-23T15:27:15;11.90;1.00
4727;DHT22;2377;51.734;8.950;2023-03-23T15:29:51;11.80;1.00
4727;DHT22;2377;51.734;8.950;2023-03-23T15:32:25;11.80;1.00
4727;DHT22;2377;51.734;8.950;2023-03-23T15:34:55;11.80;1.00
4727;DHT22;2377;51.734;8.950;2023-03-23T15:37:26;11.80;1.00
4727;DHT22;2377;51.734;8.950;2023-03-23T15:39:56;11.90;1.00
4727;DHT22;2377;51.734;8.950;2023-03-23T15:42:28;11.90;1.00
4727;DHT22;2377;51.734;8.950;2023-03-23T15:45:05;11.90;1.00
4727;DHT22;2377;51.734;8.950;2023-03-23T15:47:47;11.90;1.00
4727;DHT22;2377;51.734;8.950;2023-03-23T15:50:17;11.90;1.00
4727;DHT22;2377;51.734;8.950;2023-03-23T15:52:47;12.00;1.00
4727;DHT22;2377;51.734;8.950;2023-03-23T15:55:25;11.90;1.00
4727;DHT22;2377;51.734;8.950;2023-03-23T15:57:56;12.00;1.00
4727;DHT22;2377;51.734;8.950;2023-03-23T16:00:25;12.00;1.00
4727;DHT22;2377;51.734;8.950;2023-03-23T16:02:57;11.90;1.00
4727;DHT22;2377;51.734;8.950;2023-03-23T16:05:26;12.00;1.00
4727;DHT22;2377;51.734;8.950;2023-03-23T16:07:54;12.00;1.00
4727;DHT22;2377;51.734;8.950;2023-03-23T16:10:23;12.00;1.00
4727;DHT22;2377;51.734;8.950;2023-03-23T16:12:51;12.00;1.00
4727;DHT22;2377;51.734;8.950;2023-03-23T16:15:19;12.00;1.00
4727;DHT22;2377;51.734;8.950;2023-03-23T16:17:46;12.10;1.00
4727;DHT22;2377;51.734;8.950;2023-03-23T16:20:15;12.10;1.00
4727;DHT22;2377;51.734;8.950;2023-03-23T16:22:43;12.10;1.00
4727;DHT22;2377;51.734;8.950;2023-03-23T16:25:12;12.10;1.00
4727;DHT22;2377;51.734;8.950;2023-03-23T16:27:40;12.10;1.00
4727;DHT22;2377;51.734;8.950;2023-03-23T16:30:16;12.20;1.00
4727;DHT22;2377;51.734;8.950;2023-03-23T16:32:46;12.20;1.00
4727;DHT22;2377;51.734;8.950;2023-03-23T16:35:13;12.30;1.00
4727;DHT22;2377;51.734;8.950;2023-03-23T16:37:44;12.30;1.00
4727;DHT22;2377;51.734;8.950;2023-03-23T16:40:13;12.30;1.00
4727;DHT22;2377;51.734;8.950;2023-03-23T16:42:42;12.30;1.00